createdAt,value
2019-03-31T14:02:47.872Z,18.30
2019-03-31T14:05:19.068Z,18.20
2019-03-31T14:07:50.406Z,18.20
2019-03-31T14:10:20.716Z,18.40
2019-03-31T14:12:51.683Z,18.60
2019-03-31T14:15:22.301Z,18.80
2019-03-31T14:17:53.639Z,18.90
2019-03-31T14:20:24.523Z,19.00
2019-03-31T14:22:55.530Z,19.20
2019-03-31T14:25:26.777Z,19.20
2019-03-31T14:27:57.775Z,19.00
2019-03-31T14:30:29.049Z,18.90
2019-03-31T14:32:59.365Z,18.70
2019-03-31T14:35:30.326Z,18.40
2019-03-31T14:38:01.546Z,18.30
2019-03-31T14:40:31.854Z,18.20
2019-03-31T14:43:02.099Z,18.10
2019-03-31T14:45:41.414Z,18.00
2019-03-31T14:48:12.370Z,18.00
2019-03-31T14:50:42.890Z,18.10
2019-03-31T14:53:12.889Z,18.10
2019-03-31T14:55:43.476Z,18.00
2019-03-31T14:58:14.392Z,17.90
2019-03-31T15:00:45.672Z,17.90
2019-03-31T15:03:18.260Z,17.90
2019-03-31T15:05:49.404Z,18.00
2019-03-31T15:08:19.977Z,18.00
2019-03-31T15:10:51.183Z,18.00
2019-03-31T15:13:21.094Z,17.90
2019-03-31T15:15:52.063Z,17.90
2019-03-31T15:18:23.334Z,17.90
2019-03-31T15:20:54.292Z,18.00
2019-03-31T15:23:28.935Z,18.00
2019-03-31T15:25:56.871Z,18.10
2019-03-31T15:28:28.311Z,18.30
2019-03-31T15:30:58.538Z,18.30
2019-03-31T15:33:29.516Z,18.10
2019-03-31T15:36:02.085Z,18.00
2019-03-31T15:38:32.468Z,17.90
2019-03-31T15:41:03.635Z,18.00
2019-03-31T15:43:34.232Z,17.80
2019-03-31T15:46:04.607Z,17.70
2019-03-31T15:48:35.271Z,17.70
2019-03-31T15:51:06.205Z,17.60
2019-03-31T15:53:36.714Z,17.60
2019-03-31T15:56:07.768Z,17.50
2019-03-31T15:58:38.753Z,17.50
2019-03-31T16:01:09.799Z,17.50
2019-03-31T16:03:40.689Z,17.30
2019-03-31T16:06:11.671Z,17.30
2019-03-31T16:08:41.015Z,17.30
2019-03-31T16:11:11.488Z,17.40
2019-03-31T16:13:41.556Z,17.40
2019-03-31T16:16:14.249Z,17.30
2019-03-31T16:18:43.388Z,17.30
2019-03-31T16:21:13.488Z,17.30
2019-03-31T16:23:43.520Z,17.20
2019-03-31T16:26:13.669Z,17.20
2019-03-31T16:28:43.990Z,17.20
2019-03-31T16:31:14.497Z,17.20
2019-03-31T16:33:44.536Z,17.10
2019-03-31T16:36:14.973Z,17.10
2019-03-31T16:38:45.128Z,17.00
2019-03-31T16:41:15.613Z,16.90
2019-03-31T16:43:45.706Z,16.80
2019-03-31T16:46:15.788Z,16.60
2019-03-31T16:48:45.544Z,16.50
2019-03-31T16:51:16.399Z,16.40
2019-03-31T16:53:46.403Z,16.30
2019-03-31T16:56:16.549Z,16.10
2019-03-31T16:58:46.643Z,16.00
2019-03-31T17:01:16.986Z,15.90
2019-03-31T17:03:46.691Z,15.70
2019-03-31T17:06:16.416Z,15.70
2019-03-31T17:08:47.095Z,15.60
2019-03-31T17:11:17.149Z,15.50
2019-03-31T17:13:47.244Z,15.50
2019-03-31T17:16:16.592Z,15.40
2019-03-31T17:18:46.977Z,15.40
2019-03-31T17:21:16.985Z,15.20
2019-03-31T17:23:47.782Z,15.20
2019-03-31T17:26:18.182Z,15.10
2019-03-31T17:28:48.512Z,15.10
2019-03-31T17:31:18.267Z,15.00
2019-03-31T17:33:48.631Z,14.80
2019-03-31T17:36:19.039Z,14.60
2019-03-31T17:38:49.155Z,14.40
2019-03-31T17:41:18.891Z,14.20
2019-03-31T17:43:49.361Z,14.00
2019-03-31T17:46:20.140Z,13.80
2019-03-31T17:48:50.510Z,13.50
2019-03-31T17:51:20.606Z,13.40
2019-03-31T17:53:50.650Z,13.30
2019-03-31T17:56:21.131Z,13.20
2019-03-31T17:58:50.919Z,13.00
2019-03-31T18:01:22.476Z,12.90
2019-03-31T18:03:52.521Z,12.80
2019-03-31T18:06:23.299Z,12.70
2019-03-31T18:08:52.949Z,12.70
2019-03-31T18:11:23.408Z,12.50
2019-03-31T18:13:54.165Z,12.40
2019-03-31T18:16:24.530Z,12.40
2019-03-31T18:18:58.245Z,12.40
2019-03-31T18:21:28.262Z,12.30
2019-03-31T18:23:58.634Z,12.30
2019-03-31T18:26:28.974Z,12.30
2019-03-31T18:28:59.704Z,12.30
2019-03-31T18:31:30.152Z,12.20
2019-03-31T18:34:00.616Z,12.30
2019-03-31T18:36:36.749Z,12.20
2019-03-31T18:39:04.352Z,12.30
2019-03-31T18:41:34.955Z,12.20
2019-03-31T18:44:05.545Z,12.20
2019-03-31T18:46:35.897Z,12.20
2019-03-31T18:49:06.314Z,12.10
2019-03-31T18:51:36.467Z,12.00
2019-03-31T18:54:16.039Z,12.00
2019-03-31T18:57:07.706Z,11.90
2019-03-31T18:59:56.516Z,11.90
2019-03-31T19:02:57.490Z,11.90
2019-03-31T19:05:45.557Z,11.80
2019-03-31T19:08:33.617Z,11.80
2019-03-31T19:11:14.769Z,11.80
2019-03-31T19:13:57.825Z,11.90
2019-03-31T19:16:49.311Z,11.90
2019-03-31T19:19:37.252Z,11.80
2019-03-31T19:22:18.138Z,11.80
2019-03-31T19:25:19.695Z,11.70
2019-03-31T19:28:07.000Z,11.70
2019-03-31T19:31:08.480Z,11.60
2019-03-31T19:33:56.585Z,11.50
2019-03-31T19:36:37.829Z,11.60
2019-03-31T19:39:21.112Z,11.60
2019-03-31T19:42:17.544Z,11.60
2019-03-31T19:44:59.850Z,11.50
2019-03-31T19:47:48.057Z,11.50
2019-03-31T19:50:38.756Z,11.60
2019-03-31T19:53:28.007Z,11.50
2019-03-31T19:56:17.351Z,11.40
2019-03-31T19:59:05.306Z,11.30
